Stolt Ami — 3EAZ5 — position and weather

sailwx.info

Track history (hours):
 
Tides and Currents Weather Stations Pressure Air Temp Water Temp Dewpoint Dewpoint Depression Visibility Wind Speed Wind Dir Waves Ship Positions

Stolt Ami

Last reported at 2014-Jul-15 06:23 UTC. Time now 2014-Jul-26 17:13 UTC.
Position N 29°23' W 094°48'.
Warning: this ship's position is 11 days out of date.

Length 143 m; draft 5.8 m.

Type: Ship. MMSI: 371433000.

Date/timePositionNaut miles runAvg speedWind from/ knotsBaromVisibWave heightAir tempDewpointWater temp
2014-Jul-15 06:23N 29°23' W 094°48'1214.6
2014-Jul-15 05:33N 29°33' W 094°55'1212.3
2014-Jul-15 04:33N 29°44' W 095°02'6 6.2
2014-Jul-15 03:33N 29°44' W 095°09'0 0.0
2014-Jul-15 02:33N 29°44' W 095°09'0 0.0
2014-Jul-15 01:33N 29°44' W 095°09'0 0.0
2014-Jul-15 00:33N 29°44' W 095°09'0 0.0
2014-Jul-14 23:33N 29°44' W 095°09'0 0.0
2014-Jul-14 22:30N 29°44' W 095°09'0 0.0
2014-Jul-14 21:33N 29°44' W 095°09'0 0.0
2014-Jul-14 20:33N 29°44' W 095°09'0 0.0
2014-Jul-14 19:30N 29°44' W 095°09'0 0.0
2014-Jul-14 18:33N 29°44' W 095°09'0 0.0
2014-Jul-14 17:33N 29°44' W 095°09'0 0.0
2014-Jul-14 16:33N 29°44' W 095°09'0 0.0
2014-Jul-14 15:33N 29°44' W 095°09'0 0.0
2014-Jul-14 14:33N 29°44' W 095°09'0 0.0
2014-Jul-14 13:33N 29°44' W 095°09'0 0.0
2014-Jul-14 12:30N 29°44' W 095°09'0 0.0
2014-Jul-14 11:33N 29°44' W 095°09'0 0.0
2014-Jul-14 10:33N 29°44' W 095°09'0 0.0
2014-Jul-14 09:33N 29°44' W 095°09'0 0.0
2014-Jul-14 08:33N 29°44' W 095°09'0 0.0
2014-Jul-14 07:30N 29°44' W 095°09'0 0.0
2014-Jul-14 06:30N 29°44' W 095°09'0 0.0
2014-Jul-14 05:33N 29°44' W 095°09'0 0.0
2014-Jul-14 04:33N 29°44' W 095°09'0 0.0
2014-Jul-14 03:33N 29°44' W 095°09'0 0.0
2014-Jul-14 02:30N 29°44' W 095°09'0 0.0
2014-Jul-14 01:30N 29°44' W 095°09'0 0.0
2014-Jul-14 00:33N 29°44' W 095°09'2 2.3
2014-Jul-13 23:33N 29°44' W 095°07'1 0.7
2014-Jul-13 22:31N 29°45' W 095°06'0 0.0
2014-Jul-13 21:31N 29°45' W 095°06'0 0.0
2014-Jul-13 20:31N 29°45' W 095°06'0 0.0
2014-Jul-13 19:31N 29°45' W 095°06'0 0.0
2014-Jul-13 18:31N 29°45' W 095°06'0 0.0
2014-Jul-13 17:31N 29°45' W 095°06'0 0.0
2014-Jul-13 16:31N 29°45' W 095°06'0 0.0
2014-Jul-13 15:31N 29°45' W 095°06'0 0.0
2014-Jul-13 14:31N 29°45' W 095°06'0 0.0
2014-Jul-13 13:31N 29°45' W 095°06'0 0.0
2014-Jul-13 12:31N 29°45' W 095°06'0 0.0
2014-Jul-13 11:31N 29°45' W 095°06'0 0.0
2014-Jul-13 10:31N 29°45' W 095°06'0 0.0
2014-Jul-13 09:31N 29°45' W 095°06'0 0.0
2014-Jul-13 08:31N 29°45' W 095°06'0 0.0
2014-Jul-13 07:31N 29°45' W 095°06'0 0.0
2014-Jul-13 06:31N 29°45' W 095°06'0 0.0
2014-Jul-13 05:31N 29°45' W 095°06'0 0.0
2014-Jul-13 04:28N 29°45' W 095°06'0 0.0
2014-Jul-13 03:31N 29°45' W 095°06'0 0.0
2014-Jul-13 02:31N 29°45' W 095°06'0 0.0
2014-Jul-13 01:31N 29°45' W 095°06'0 0.0
2014-Jul-13 00:31N 29°45' W 095°06'0 0.0
2014-Jul-12 23:31N 29°45' W 095°06'0 0.0
2014-Jul-12 22:31N 29°45' W 095°06'0 0.0
2014-Jul-12 21:31N 29°45' W 095°06'0 0.0
2014-Jul-12 20:33N 29°45' W 095°06'5 5.0
2014-Jul-12 19:33N 29°42' W 095°01'1211.8
2014-Jul-12 18:33N 29°32' W 094°54'20 2.5
2014-Jul-12 10:32N 29°19' W 094°36'  
2014-Jul-09 20:33N 29°24' W 094°49'1212.3
2014-Jul-09 19:33N 29°35' W 094°56'1010.2
2014-Jul-09 18:33N 29°44' W 095°02'6 6.2
2014-Jul-09 17:33N 29°44' W 095°09'5 5.0
2014-Jul-09 16:34N 29°43' W 095°14'1 0.7
2014-Jul-09 15:31N 29°44' W 095°14'0 0.0
2014-Jul-09 14:31N 29°44' W 095°14'0 0.0
2014-Jul-09 13:31N 29°44' W 095°14'0 0.0
2014-Jul-09 12:31N 29°44' W 095°14'0 0.0
2014-Jul-09 11:31N 29°44' W 095°14'0 0.0
2014-Jul-09 10:31N 29°44' W 095°14'0 0.0
2014-Jul-09 09:31N 29°44' W 095°14'0 0.0
2014-Jul-09 08:31N 29°44' W 095°14'0 0.0
2014-Jul-09 07:31N 29°44' W 095°14'0 0.0
2014-Jul-09 06:22N 29°44' W 095°14'0 0.0
2014-Jul-09 05:31N 29°44' W 095°14'0 0.0
2014-Jul-09 04:31N 29°44' W 095°14'0 0.0
2014-Jul-09 03:31N 29°44' W 095°14'0 0.0
2014-Jul-09 02:31N 29°44' W 095°14'0 0.0
2014-Jul-09 01:31N 29°44' W 095°14'0 0.0
2014-Jul-09 00:31N 29°44' W 095°14'0 0.0
2014-Jul-08 23:31N 29°44' W 095°14'0 0.0
2014-Jul-08 22:31N 29°44' W 095°14'0 0.0
2014-Jul-08 21:31N 29°44' W 095°14'0 0.0
2014-Jul-08 20:31N 29°44' W 095°14'0 0.0
2014-Jul-08 19:31N 29°44' W 095°14'0 0.0
2014-Jul-08 18:28N 29°44' W 095°14'0 0.0
2014-Jul-08 17:31N 29°44' W 095°14'0 0.0
2014-Jul-08 16:31N 29°44' W 095°14'0 0.0
2014-Jul-08 15:31N 29°44' W 095°14'0 0.0
2014-Jul-08 14:31N 29°44' W 095°14'0 0.0
2014-Jul-08 13:28N 29°44' W 095°14'0 0.0
2014-Jul-08 12:31N 29°44' W 095°14'0 0.0
2014-Jul-08 11:31N 29°44' W 095°14'0 0.0
2014-Jul-08 10:31N 29°44' W 095°14'0 0.0
2014-Jul-08 09:31N 29°44' W 095°14'0 0.0
2014-Jul-08 08:28N 29°44' W 095°14'0 0.0
2014-Jul-08 07:31N 29°44' W 095°14'0 0.0
2014-Jul-08 06:31N 29°44' W 095°14'0 0.0
2014-Jul-08 05:28N 29°44' W 095°14'0 0.0
2014-Jul-08 04:31N 29°44' W 095°14'0 0.0
2014-Jul-08 03:31N 29°44' W 095°14'0 0.0
2014-Jul-08 02:31N 29°44' W 095°14'0 0.0
2014-Jul-08 01:31N 29°44' W 095°14'0 0.0
2014-Jul-08 00:31N 29°44' W 095°14'0 0.0
2014-Jul-07 23:31N 29°44' W 095°14'0 0.0
2014-Jul-07 22:31N 29°44' W 095°14'0 0.0
2014-Jul-07 21:31N 29°44' W 095°14'0 0.0
2014-Jul-07 20:31N 29°44' W 095°14'0 0.0
2014-Jul-07 19:31N 29°44' W 095°14'0 0.0
2014-Jul-07 18:31N 29°44' W 095°14'0 0.0
2014-Jul-07 17:31N 29°44' W 095°14'0 0.0
2014-Jul-07 16:31N 29°44' W 095°14'0 0.0
2014-Jul-07 15:31N 29°44' W 095°14'0 0.0
2014-Jul-07 14:31N 29°44' W 095°14'0 0.0
2014-Jul-07 13:31N 29°44' W 095°14'0 0.0
2014-Jul-07 12:31N 29°44' W 095°14'0 0.0
2014-Jul-07 11:31N 29°44' W 095°14'2 2.0
2014-Jul-07 10:34N 29°45' W 095°12'5 5.5
2014-Jul-07 09:34N 29°46' W 095°05'8 8.4
2014-Jul-07 08:34N 29°40' W 094°58'1212.2
2014-Jul-07 07:33N 29°29' W 094°52'  
Track history (hours):
 
Tides and Currents Weather Stations Pressure Air Temp Water Temp Dewpoint Dewpoint Depression Visibility Wind Speed Wind Dir Waves Ship Positions

Stolt Ami

Last reported at 2014-Jul-15 06:23 UTC. Time now 2014-Jul-26 17:13 UTC.
Position N 29°23' W 094°48'.
Warning: this ship's position is 11 days out of date.

Length 143 m; draft 5.8 m.

Type: Ship. MMSI: 371433000.

Date/timePositionNaut miles runAvg speedWind from/ knotsBaromVisibWave heightAir tempDewpointWater temp
2014-Jul-15 06:23N 29°23' W 094°48'1214.6
2014-Jul-15 05:33N 29°33' W 094°55'1212.3
2014-Jul-15 04:33N 29°44' W 095°02'6 6.2
2014-Jul-15 03:33N 29°44' W 095°09'0 0.0
2014-Jul-15 02:33N 29°44' W 095°09'0 0.0
2014-Jul-15 01:33N 29°44' W 095°09'0 0.0
2014-Jul-15 00:33N 29°44' W 095°09'0 0.0
2014-Jul-14 23:33N 29°44' W 095°09'0 0.0
2014-Jul-14 22:30N 29°44' W 095°09'0 0.0
2014-Jul-14 21:33N 29°44' W 095°09'0 0.0
2014-Jul-14 20:33N 29°44' W 095°09'0 0.0
2014-Jul-14 19:30N 29°44' W 095°09'0 0.0
2014-Jul-14 18:33N 29°44' W 095°09'0 0.0
2014-Jul-14 17:33N 29°44' W 095°09'0 0.0
2014-Jul-14 16:33N 29°44' W 095°09'0 0.0
2014-Jul-14 15:33N 29°44' W 095°09'0 0.0
2014-Jul-14 14:33N 29°44' W 095°09'0 0.0
2014-Jul-14 13:33N 29°44' W 095°09'0 0.0
2014-Jul-14 12:30N 29°44' W 095°09'0 0.0
2014-Jul-14 11:33N 29°44' W 095°09'0 0.0
2014-Jul-14 10:33N 29°44' W 095°09'0 0.0
2014-Jul-14 09:33N 29°44' W 095°09'0 0.0
2014-Jul-14 08:33N 29°44' W 095°09'0 0.0
2014-Jul-14 07:30N 29°44' W 095°09'0 0.0
2014-Jul-14 06:30N 29°44' W 095°09'0 0.0
2014-Jul-14 05:33N 29°44' W 095°09'0 0.0
2014-Jul-14 04:33N 29°44' W 095°09'0 0.0
2014-Jul-14 03:33N 29°44' W 095°09'0 0.0
2014-Jul-14 02:30N 29°44' W 095°09'0 0.0
2014-Jul-14 01:30N 29°44' W 095°09'0 0.0
2014-Jul-14 00:33N 29°44' W 095°09'2 2.3
2014-Jul-13 23:33N 29°44' W 095°07'1 0.7
2014-Jul-13 22:31N 29°45' W 095°06'0 0.0
2014-Jul-13 21:31N 29°45' W 095°06'0 0.0
2014-Jul-13 20:31N 29°45' W 095°06'0 0.0
2014-Jul-13 19:31N 29°45' W 095°06'0 0.0
2014-Jul-13 18:31N 29°45' W 095°06'0 0.0
2014-Jul-13 17:31N 29°45' W 095°06'0 0.0
2014-Jul-13 16:31N 29°45' W 095°06'0 0.0
2014-Jul-13 15:31N 29°45' W 095°06'0 0.0
2014-Jul-13 14:31N 29°45' W 095°06'0 0.0
2014-Jul-13 13:31N 29°45' W 095°06'0 0.0
2014-Jul-13 12:31N 29°45' W 095°06'0 0.0
2014-Jul-13 11:31N 29°45' W 095°06'0 0.0
2014-Jul-13 10:31N 29°45' W 095°06'0 0.0
2014-Jul-13 09:31N 29°45' W 095°06'0 0.0
2014-Jul-13 08:31N 29°45' W 095°06'0 0.0
2014-Jul-13 07:31N 29°45' W 095°06'0 0.0
2014-Jul-13 06:31N 29°45' W 095°06'0 0.0
2014-Jul-13 05:31N 29°45' W 095°06'0 0.0
2014-Jul-13 04:28N 29°45' W 095°06'0 0.0
2014-Jul-13 03:31N 29°45' W 095°06'0 0.0
2014-Jul-13 02:31N 29°45' W 095°06'0 0.0
2014-Jul-13 01:31N 29°45' W 095°06'0 0.0
2014-Jul-13 00:31N 29°45' W 095°06'0 0.0
2014-Jul-12 23:31N 29°45' W 095°06'0 0.0
2014-Jul-12 22:31N 29°45' W 095°06'0 0.0
2014-Jul-12 21:31N 29°45' W 095°06'0 0.0
2014-Jul-12 20:33N 29°45' W 095°06'5 5.0
2014-Jul-12 19:33N 29°42' W 095°01'1211.8
2014-Jul-12 18:33N 29°32' W 094°54'20 2.5
2014-Jul-12 10:32N 29°19' W 094°36'  
2014-Jul-09 20:33N 29°24' W 094°49'1212.3
2014-Jul-09 19:33N 29°35' W 094°56'1010.2
2014-Jul-09 18:33N 29°44' W 095°02'6 6.2
2014-Jul-09 17:33N 29°44' W 095°09'5 5.0
2014-Jul-09 16:34N 29°43' W 095°14'1 0.7
2014-Jul-09 15:31N 29°44' W 095°14'0 0.0
2014-Jul-09 14:31N 29°44' W 095°14'0 0.0
2014-Jul-09 13:31N 29°44' W 095°14'0 0.0
2014-Jul-09 12:31N 29°44' W 095°14'0 0.0
2014-Jul-09 11:31N 29°44' W 095°14'0 0.0
2014-Jul-09 10:31N 29°44' W 095°14'0 0.0
2014-Jul-09 09:31N 29°44' W 095°14'0 0.0
2014-Jul-09 08:31N 29°44' W 095°14'0 0.0
2014-Jul-09 07:31N 29°44' W 095°14'0 0.0
2014-Jul-09 06:22N 29°44' W 095°14'0 0.0
2014-Jul-09 05:31N 29°44' W 095°14'0 0.0
2014-Jul-09 04:31N 29°44' W 095°14'0 0.0
2014-Jul-09 03:31N 29°44' W 095°14'0 0.0
2014-Jul-09 02:31N 29°44' W 095°14'0 0.0
2014-Jul-09 01:31N 29°44' W 095°14'0 0.0
2014-Jul-09 00:31N 29°44' W 095°14'0 0.0
2014-Jul-08 23:31N 29°44' W 095°14'0 0.0
2014-Jul-08 22:31N 29°44' W 095°14'0 0.0
2014-Jul-08 21:31N 29°44' W 095°14'0 0.0
2014-Jul-08 20:31N 29°44' W 095°14'0 0.0
2014-Jul-08 19:31N 29°44' W 095°14'0 0.0
2014-Jul-08 18:28N 29°44' W 095°14'0 0.0
2014-Jul-08 17:31N 29°44' W 095°14'0 0.0
2014-Jul-08 16:31N 29°44' W 095°14'0 0.0
2014-Jul-08 15:31N 29°44' W 095°14'0 0.0
2014-Jul-08 14:31N 29°44' W 095°14'0 0.0
2014-Jul-08 13:28N 29°44' W 095°14'0 0.0
2014-Jul-08 12:31N 29°44' W 095°14'0 0.0
2014-Jul-08 11:31N 29°44' W 095°14'0 0.0
2014-Jul-08 10:31N 29°44' W 095°14'0 0.0
2014-Jul-08 09:31N 29°44' W 095°14'0 0.0
2014-Jul-08 08:28N 29°44' W 095°14'0 0.0
2014-Jul-08 07:31N 29°44' W 095°14'0 0.0
2014-Jul-08 06:31N 29°44' W 095°14'0 0.0
2014-Jul-08 05:28N 29°44' W 095°14'0 0.0
2014-Jul-08 04:31N 29°44' W 095°14'0 0.0
2014-Jul-08 03:31N 29°44' W 095°14'0 0.0
2014-Jul-08 02:31N 29°44' W 095°14'0 0.0
2014-Jul-08 01:31N 29°44' W 095°14'0 0.0
2014-Jul-08 00:31N 29°44' W 095°14'0 0.0
2014-Jul-07 23:31N 29°44' W 095°14'0 0.0
2014-Jul-07 22:31N 29°44' W 095°14'0 0.0
2014-Jul-07 21:31N 29°44' W 095°14'0 0.0
2014-Jul-07 20:31N 29°44' W 095°14'0 0.0
2014-Jul-07 19:31N 29°44' W 095°14'0 0.0
2014-Jul-07 18:31N 29°44' W 095°14'0 0.0
2014-Jul-07 17:31N 29°44' W 095°14'0 0.0
2014-Jul-07 16:31N 29°44' W 095°14'0 0.0
2014-Jul-07 15:31N 29°44' W 095°14'0 0.0
2014-Jul-07 14:31N 29°44' W 095°14'0 0.0
2014-Jul-07 13:31N 29°44' W 095°14'0 0.0
2014-Jul-07 12:31N 29°44' W 095°14'0 0.0
2014-Jul-07 11:31N 29°44' W 095°14'2 2.0
2014-Jul-07 10:34N 29°45' W 095°12'5 5.5
2014-Jul-07 09:34N 29°46' W 095°05'8 8.4
2014-Jul-07 08:34N 29°40' W 094°58'1212.2
2014-Jul-07 07:33N 29°29' W 094°52'  

Dump ship's entire track history